Strona główna
METAR-TAF:

METAR-TAF

Lotnisko :

Port lotniczy Chongqing-Jiangbei

Chongqing, Chiny

Szerokość geograficzna: 29-31N, Długość geograficzna: 106-29E, wysokość: 351 m

Aktualna obserwacja pogody

Raport powstał 15 minut temu, godzina 12:00 UTC
Wiatr 6 kt od północno-północny wschód
Temperatura 9°C
Wilgotność 61%
Ciśnienie 1016 hPa
Widzialność 10 km lub więcej
Przerywane chmury na wysokości 3600 ft

METAR: ZUCK 181200Z 02003MPS 9999 BKN036 09/02 Q1016 NOSIG

czas: 20:15 (12:15 UTC)

Prognoza

Raport powstał 3 godziny i 12 minut temu, godzina 09:03 UTC
Prognoza ważna od 18 godzina 12 UTC do 19 godzina 12 UTC
Wiatr 6 kt od wschód
Widzialność: 5000 m
Rozproszone chmury na wysokości 5000 ft
zamglenie

TAF: ZUCK 180903Z 1812/1912 10003MPS 5000 BR SCT050 TX11/1907Z TN07/1822Z

Obserwacja i prognoza pogody dla ponad 4000 lotnisk (raport METAR i TAF).

Dostępne stacje oznaczono żółtymi i czerwonymi punktami na mapie.

Najedź kursorem aby zobaczyć nazwę stacji.

Kliknij aby zobaczyć obserwacje i prognozy pogody.

Aby zmienić mapę: kliknij na zielony przycisk z czarnym krzyżykiem, aby powiększyć; na zielony przycisk z myślnikiem, aby pomniejszyć; na zielone strzałki, aby przejść do map sąsiednich.


METAR-TAF: